createdAt,value
2024-01-08T00:00:40.435Z,1.50
2024-01-08T00:03:09.010Z,1.50
2024-01-08T00:05:39.213Z,1.93
2024-01-08T00:08:09.478Z,1.47
2024-01-08T00:10:38.445Z,1.60
2024-01-08T00:13:06.607Z,1.70
2024-01-08T00:15:34.811Z,1.67
2024-01-08T00:18:03.152Z,1.40
2024-01-08T00:20:31.487Z,1.60
2024-01-08T00:22:59.658Z,1.90
2024-01-08T00:25:29.165Z,1.63
2024-01-08T00:27:57.740Z,1.80
2024-01-08T00:30:26.089Z,1.50
2024-01-08T00:32:54.459Z,1.70
2024-01-08T00:35:23.454Z,1.60
2024-01-08T00:37:51.571Z,1.90
2024-01-08T00:40:19.766Z,1.80
2024-01-08T00:42:49.122Z,1.60
2024-01-08T00:45:17.256Z,1.50
2024-01-08T00:47:45.339Z,1.43
2024-01-08T00:50:15.330Z,1.67
2024-01-08T00:52:43.556Z,1.60
2024-01-08T00:55:13.336Z,1.60
2024-01-08T00:57:41.983Z,1.67
2024-01-08T01:00:12.127Z,1.50
2024-01-08T01:02:41.737Z,1.53
2024-01-08T01:05:10.371Z,1.80
2024-01-08T01:07:38.472Z,1.80
2024-01-08T01:10:06.898Z,1.60
2024-01-08T01:12:35.027Z,1.60
2024-01-08T01:15:03.098Z,1.60
2024-01-08T01:17:32.775Z,1.60
2024-01-08T01:20:00.990Z,1.50
2024-01-08T01:22:29.286Z,1.80
2024-01-08T01:24:57.340Z,1.57
2024-01-08T01:27:25.491Z,1.60
2024-01-08T01:29:53.636Z,1.83
2024-01-08T01:32:21.657Z,1.80
2024-01-08T01:34:51.188Z,1.50
2024-01-08T01:37:19.400Z,1.60
2024-01-08T01:39:47.362Z,1.60
2024-01-08T01:42:15.408Z,1.63
2024-01-08T01:44:43.492Z,1.80
2024-01-08T01:47:11.694Z,1.70
2024-01-08T01:49:40.814Z,1.60
2024-01-08T01:52:10.551Z,1.43
2024-01-08T01:54:38.936Z,1.70
2024-01-08T01:57:07.678Z,1.40
2024-01-08T01:59:36.244Z,1.63
2024-01-08T02:02:05.441Z,1.33
2024-01-08T02:04:34.612Z,1.50
2024-01-08T02:07:02.953Z,1.57
2024-01-08T02:09:32.492Z,1.70
2024-01-08T02:12:00.605Z,1.50
2024-01-08T02:14:28.847Z,1.67
2024-01-08T02:16:56.943Z,1.63
2024-01-08T02:19:25.069Z,1.37
2024-01-08T02:21:53.247Z,1.67
2024-01-08T02:24:22.679Z,1.57
2024-01-08T02:26:50.786Z,1.77
2024-01-08T02:29:20.947Z,1.50
2024-01-08T02:31:49.092Z,1.30
2024-01-08T02:34:17.210Z,1.83
2024-01-08T02:36:45.236Z,1.73
2024-01-08T02:39:13.427Z,1.60
2024-01-08T02:41:42.810Z,1.73
2024-01-08T02:44:10.848Z,1.77
2024-01-08T02:46:38.927Z,1.50
2024-01-08T02:49:07.302Z,1.63
2024-01-08T02:51:35.354Z,1.50
2024-01-08T02:54:03.396Z,1.53
2024-01-08T02:56:31.509Z,1.60
2024-01-08T02:59:07.353Z,1.70
2024-01-08T03:14:23.722Z,1.50
2024-01-08T03:16:51.880Z,1.67
2024-01-08T03:19:19.981Z,1.87
2024-01-08T03:21:48.080Z,1.77
2024-01-08T03:24:16.195Z,1.43
2024-01-08T03:26:44.310Z,1.87
2024-01-08T03:29:12.372Z,1.63
2024-01-08T03:31:44.077Z,1.70
2024-01-08T03:34:12.164Z,1.67
2024-01-08T03:36:40.246Z,1.60
2024-01-08T03:39:08.254Z,1.50
2024-01-08T03:41:36.267Z,1.60
2024-01-08T03:44:04.399Z,1.50
2024-01-08T03:46:32.388Z,1.67
2024-01-08T03:49:01.766Z,1.60
2024-01-08T03:51:29.803Z,1.57
2024-01-08T03:53:57.853Z,1.50
2024-01-08T03:56:26.008Z,1.70
2024-01-08T03:58:54.003Z,1.80
2024-01-08T04:01:22.058Z,1.83
2024-01-08T04:03:50.236Z,1.60
2024-01-08T04:06:19.761Z,1.47
2024-01-08T04:08:47.855Z,1.67
2024-01-08T04:11:15.860Z,1.93
2024-01-08T04:13:43.941Z,1.70
2024-01-08T04:16:11.974Z,1.80
2024-01-08T04:18:40.077Z,1.70
2024-01-08T04:21:08.213Z,1.80
2024-01-08T04:23:37.707Z,1.77
2024-01-08T04:26:05.815Z,1.50
2024-01-08T04:28:33.840Z,1.80
2024-01-08T04:31:01.925Z,1.60
2024-01-08T04:33:30.097Z,1.60
2024-01-08T04:35:58.167Z,1.80
2024-01-08T04:38:27.204Z,1.80
2024-01-08T04:40:56.703Z,1.80
2024-01-08T04:43:24.684Z,1.50
2024-01-08T04:45:52.619Z,1.70
2024-01-08T04:48:22.003Z,1.70
2024-01-08T04:50:51.034Z,1.73
2024-01-08T04:53:19.150Z,2.10
2024-01-08T04:55:47.207Z,1.60
2024-01-08T04:58:16.765Z,1.60
2024-01-08T05:00:44.753Z,1.60
2024-01-08T05:03:13.830Z,1.63
2024-01-08T05:05:42.003Z,1.77
2024-01-08T05:08:10.075Z,1.93
2024-01-08T05:10:38.042Z,1.70
2024-01-08T05:13:06.262Z,1.83
2024-01-08T05:15:36.091Z,1.57
2024-01-08T05:18:04.340Z,1.80
2024-01-08T05:20:33.342Z,1.40
2024-01-08T05:23:01.414Z,2.10
2024-01-08T05:25:29.376Z,2.60
2024-01-08T05:27:57.434Z,2.20
2024-01-08T05:30:25.508Z,2.00
2024-01-08T05:32:55.152Z,1.90
2024-01-08T05:35:23.285Z,2.17
2024-01-08T05:37:51.275Z,1.90
2024-01-08T05:40:19.400Z,2.47
2024-01-08T05:42:47.537Z,1.77
2024-01-08T05:45:15.643Z,1.87
2024-01-08T05:47:45.767Z,1.83
2024-01-08T05:50:17.572Z,2.27
2024-01-08T05:52:45.791Z,2.43
2024-01-08T05:55:15.374Z,1.63
2024-01-08T05:57:43.423Z,2.80
2024-01-08T06:00:12.382Z,2.10
2024-01-08T06:02:40.605Z,2.07
2024-01-08T06:05:09.155Z,2.07
2024-01-08T06:07:38.901Z,1.87
2024-01-08T06:10:06.228Z,1.90
2024-01-08T06:12:34.271Z,1.80
2024-01-08T06:15:02.438Z,1.90
2024-01-08T06:17:30.499Z,1.80
2024-01-08T06:19:58.595Z,1.60
2024-01-08T06:22:27.597Z,1.70
2024-01-08T06:24:57.164Z,1.77
2024-01-08T06:27:25.516Z,1.90
2024-01-08T06:29:53.570Z,1.73
2024-01-08T06:32:21.619Z,1.80
2024-01-08T06:34:49.766Z,1.80
2024-01-08T06:37:18.300Z,1.90
2024-01-08T06:39:46.304Z,2.37
2024-01-08T06:42:15.682Z,1.90
2024-01-08T06:44:43.846Z,2.03
2024-01-08T06:47:12.012Z,1.63
2024-01-08T06:49:40.061Z,1.90
2024-01-08T06:52:08.335Z,1.57
2024-01-08T06:54:36.360Z,1.80
2024-01-08T06:57:04.968Z,1.80
2024-01-08T06:59:34.432Z,1.80
2024-01-08T07:02:02.617Z,1.83
2024-01-08T07:04:30.697Z,1.80
2024-01-08T07:06:58.673Z,1.57
2024-01-08T07:09:27.098Z,1.80
2024-01-08T07:11:55.118Z,1.83
2024-01-08T07:14:23.192Z,1.50
2024-01-08T07:16:52.755Z,1.70
2024-01-08T07:19:20.976Z,1.70
2024-01-08T07:21:49.108Z,2.50
2024-01-08T07:24:17.129Z,2.03
2024-01-08T07:26:45.220Z,1.90
2024-01-08T07:29:13.239Z,2.00
2024-01-08T07:31:41.518Z,1.87
2024-01-08T07:34:11.429Z,2.07
2024-01-08T07:36:39.734Z,3.40
2024-01-08T07:39:07.732Z,2.77
2024-01-08T07:41:35.760Z,2.33
2024-01-08T07:44:04.399Z,1.80
2024-01-08T07:46:32.468Z,1.70
2024-01-08T07:49:00.956Z,2.00
2024-01-08T07:51:33.550Z,1.63
2024-01-08T07:54:02.031Z,2.17
2024-01-08T07:56:30.070Z,2.00
2024-01-08T07:58:58.457Z,2.17
2024-01-08T08:01:26.692Z,1.77
2024-01-08T08:03:54.965Z,2.27
2024-01-08T08:06:24.167Z,1.93
2024-01-08T08:08:53.702Z,2.63
2024-01-08T08:11:21.841Z,2.53
2024-01-08T08:13:49.863Z,1.70
2024-01-08T08:16:18.410Z,1.93
2024-01-08T08:18:46.589Z,3.47
2024-01-08T08:21:14.693Z,3.43
2024-01-08T08:23:43.787Z,3.80
2024-01-08T08:26:15.965Z,3.30
2024-01-08T08:28:46.229Z,3.10
2024-01-08T08:31:14.980Z,3.30
2024-01-08T08:33:43.600Z,2.70
2024-01-08T08:36:14.277Z,1.90
2024-01-08T08:38:43.734Z,1.60
2024-01-08T08:41:13.229Z,1.60
2024-01-08T08:43:41.522Z,1.80
2024-01-08T08:46:09.504Z,3.07
2024-01-08T08:48:37.849Z,4.10
2024-01-08T08:51:06.486Z,3.77
2024-01-08T08:53:34.510Z,4.00
2024-01-08T08:56:03.154Z,4.23
2024-01-08T08:58:32.582Z,4.27
2024-01-08T09:01:00.739Z,3.60
2024-01-08T09:03:28.864Z,3.57
2024-01-08T09:05:57.064Z,3.87
2024-01-08T09:08:27.332Z,4.43
2024-01-08T09:10:55.538Z,4.20
2024-01-08T09:13:23.751Z,4.40
2024-01-08T09:15:53.142Z,4.90
2024-01-08T09:18:21.161Z,3.90
2024-01-08T09:20:49.299Z,4.03
2024-01-08T09:23:17.432Z,4.47
2024-01-08T09:25:45.506Z,4.70
2024-01-08T09:28:13.431Z,4.37
2024-01-08T09:30:42.344Z,4.20
2024-01-08T09:33:11.968Z,4.20
2024-01-08T09:35:40.164Z,4.07
2024-01-08T09:38:08.627Z,3.80
2024-01-08T09:40:37.930Z,4.23
2024-01-08T09:43:08.836Z,4.43
2024-01-08T09:45:36.931Z,3.90
2024-01-08T09:48:05.749Z,3.50
2024-01-08T09:50:36.629Z,3.73
2024-01-08T09:53:04.744Z,3.43
2024-01-08T09:55:33.114Z,3.37
2024-01-08T09:58:02.421Z,3.50
2024-01-08T10:00:30.489Z,3.77
2024-01-08T10:02:58.946Z,3.93
2024-01-08T10:05:29.338Z,4.43
2024-01-08T10:08:00.533Z,4.03
2024-01-08T10:10:30.473Z,4.00
2024-01-08T10:12:58.597Z,3.97
2024-01-08T10:15:26.576Z,4.00
2024-01-08T10:17:56.700Z,4.10
2024-01-08T10:20:25.037Z,3.73
2024-01-08T10:23:05.854Z,3.97
2024-01-08T10:25:34.156Z,3.67
2024-01-08T10:28:02.386Z,3.90
2024-01-08T10:30:30.462Z,3.30
2024-01-08T10:33:02.054Z,3.47
2024-01-08T10:35:32.957Z,3.70
2024-01-08T10:38:03.242Z,3.37
2024-01-08T10:40:31.502Z,4.13
2024-01-08T10:43:00.492Z,4.03
2024-01-08T10:45:28.487Z,4.10
2024-01-08T10:47:59.173Z,3.10
2024-01-08T10:50:27.374Z,3.80
2024-01-08T10:52:56.929Z,3.80
2024-01-08T10:55:26.413Z,3.70
2024-01-08T10:57:58.280Z,3.30
2024-01-08T11:00:26.363Z,3.93
2024-01-08T11:02:54.758Z,3.30
2024-01-08T11:05:23.460Z,3.43
2024-01-08T11:07:52.792Z,3.20
2024-01-08T11:10:24.801Z,3.57
2024-01-08T11:12:58.202Z,4.23
2024-01-08T11:15:27.193Z,4.10
2024-01-08T11:17:56.029Z,4.17
2024-01-08T11:20:43.905Z,3.50
2024-01-08T11:23:30.776Z,3.73
2024-01-08T11:25:58.876Z,3.63
2024-01-08T11:28:28.393Z,4.07
2024-01-08T11:31:07.532Z,4.00
2024-01-08T11:33:40.353Z,3.70
2024-01-08T11:36:12.058Z,3.90
2024-01-08T11:38:42.414Z,3.67
2024-01-08T11:41:12.616Z,4.03
2024-01-08T11:43:42.428Z,4.10
2024-01-08T11:46:10.882Z,4.10
2024-01-08T11:48:40.329Z,4.27
2024-01-08T11:51:09.244Z,3.90
2024-01-08T11:53:37.432Z,4.20
2024-01-08T11:56:06.200Z,4.33
2024-01-08T11:58:34.276Z,3.97
2024-01-08T12:01:16.430Z,4.33
2024-01-08T12:03:44.446Z,3.80
2024-01-08T12:06:12.784Z,4.23
2024-01-08T12:08:40.898Z,4.10
2024-01-08T12:11:09.065Z,4.10
2024-01-08T12:13:37.479Z,4.00
2024-01-08T12:16:07.143Z,4.27
2024-01-08T12:18:36.019Z,4.00
2024-01-08T12:21:04.925Z,3.77
2024-01-08T12:23:33.054Z,4.33
2024-01-08T12:26:01.198Z,4.27
2024-01-08T12:28:29.249Z,4.07
2024-01-08T12:30:57.240Z,4.57
2024-01-08T12:33:26.811Z,4.30
2024-01-08T12:35:55.678Z,4.47
2024-01-08T12:38:24.086Z,4.70
2024-01-08T12:40:52.835Z,4.20
2024-01-08T12:43:21.145Z,5.20
2024-01-08T12:45:51.271Z,4.70
2024-01-08T12:48:19.857Z,4.50
2024-01-08T12:50:49.885Z,4.67
2024-01-08T12:53:18.018Z,4.40
2024-01-08T12:55:46.144Z,4.97
2024-01-08T12:58:14.155Z,5.00
2024-01-08T13:00:42.147Z,5.07
2024-01-08T13:03:10.341Z,5.07
2024-01-08T13:05:39.946Z,4.70
2024-01-08T13:08:09.583Z,4.47
2024-01-08T13:10:37.696Z,4.70
2024-01-08T13:13:05.654Z,4.47
2024-01-08T13:15:34.137Z,4.43
2024-01-08T13:18:02.443Z,4.93
2024-01-08T13:20:31.350Z,5.33
2024-01-08T13:22:58.404Z,4.90
2024-01-08T13:25:27.962Z,5.00
2024-01-08T13:27:56.048Z,5.50
2024-01-08T13:30:24.506Z,5.50
2024-01-08T13:32:52.845Z,5.93
2024-01-08T13:35:21.103Z,6.10
2024-01-08T13:37:49.418Z,5.97
2024-01-08T13:40:21.157Z,6.20
2024-01-08T13:42:52.781Z,6.00
2024-01-08T13:45:20.927Z,5.80
2024-01-08T13:47:50.826Z,5.40
2024-01-08T13:50:20.194Z,5.40
2024-01-08T13:52:48.773Z,5.57
2024-01-08T13:55:16.718Z,5.83
2024-01-08T13:57:45.626Z,5.97
2024-01-08T14:00:17.096Z,5.47
2024-01-08T14:02:45.234Z,5.03
2024-01-08T14:05:14.994Z,5.37
2024-01-08T14:07:45.860Z,5.27
2024-01-08T14:10:13.943Z,4.97
2024-01-08T14:12:41.934Z,5.80
2024-01-08T14:15:12.242Z,5.93
2024-01-08T14:17:42.812Z,5.77
2024-01-08T14:20:11.896Z,5.63
2024-01-08T14:22:40.441Z,6.00
2024-01-08T14:25:10.022Z,5.43
2024-01-08T14:27:38.484Z,5.57
2024-01-08T14:30:07.419Z,5.80
2024-01-08T14:32:35.656Z,5.53
2024-01-08T14:35:06.176Z,5.03
2024-01-08T14:37:34.526Z,6.13
2024-01-08T14:40:03.017Z,6.33
2024-01-08T14:42:31.053Z,5.53
2024-01-08T14:44:59.442Z,5.63
2024-01-08T14:47:28.359Z,5.47
2024-01-08T14:49:56.526Z,6.10
2024-01-08T14:52:26.167Z,5.83
2024-01-08T14:54:54.298Z,6.07
2024-01-08T14:57:22.334Z,6.50
2024-01-08T14:59:50.361Z,6.30
2024-01-08T15:02:18.419Z,6.43
2024-01-08T15:04:46.592Z,7.07
2024-01-08T15:07:14.591Z,6.97
2024-01-08T15:09:44.103Z,7.13
2024-01-08T15:12:12.198Z,6.53
2024-01-08T15:14:40.287Z,7.63
2024-01-08T15:17:08.849Z,7.13
2024-01-08T15:19:39.411Z,7.33
2024-01-08T15:22:07.628Z,7.60
2024-01-08T15:24:37.782Z,7.80
2024-01-08T15:27:07.363Z,8.00
2024-01-08T15:29:35.497Z,8.10
2024-01-08T15:32:04.679Z,7.83
2024-01-08T15:34:32.891Z,7.03
2024-01-08T15:37:01.895Z,6.90
2024-01-08T15:39:29.968Z,6.57
2024-01-08T15:41:58.044Z,6.00
2024-01-08T15:44:27.499Z,6.13
2024-01-08T15:46:55.549Z,5.87
2024-01-08T15:49:23.840Z,7.13
2024-01-08T15:51:51.940Z,6.50
2024-01-08T15:54:20.292Z,5.93
2024-01-08T15:56:48.440Z,6.47
2024-01-08T15:59:16.615Z,6.27
2024-01-08T16:01:46.068Z,6.60
2024-01-08T16:04:14.301Z,6.87
2024-01-08T16:06:42.322Z,6.30
2024-01-08T16:09:10.501Z,7.17
2024-01-08T16:11:38.797Z,7.47
2024-01-08T16:14:06.794Z,7.37
2024-01-08T16:16:34.868Z,7.73
2024-01-08T16:19:04.646Z,7.13
2024-01-08T16:21:33.118Z,8.33
2024-01-08T16:24:09.768Z,7.47
2024-01-08T16:26:41.951Z,7.53
2024-01-08T16:29:10.457Z,8.10
2024-01-08T16:31:38.725Z,8.07
2024-01-08T16:34:08.177Z,7.90
2024-01-08T16:36:36.301Z,8.73
2024-01-08T16:39:04.333Z,9.23
2024-01-08T16:41:32.891Z,9.13
2024-01-08T16:44:01.642Z,10.07
2024-01-08T16:46:29.815Z,9.43
2024-01-08T16:48:58.006Z,8.43
2024-01-08T16:51:28.221Z,8.27
2024-01-08T16:53:56.739Z,9.27
2024-01-08T16:56:25.667Z,9.20
2024-01-08T16:58:55.200Z,8.70
2024-01-08T17:01:23.402Z,9.07
2024-01-08T17:03:51.564Z,9.70
2024-01-08T17:06:20.926Z,8.63
2024-01-08T17:08:50.638Z,8.43
2024-01-08T17:11:18.731Z,8.57
2024-01-08T17:13:47.553Z,9.33
2024-01-08T17:16:15.609Z,8.93
2024-01-08T17:18:43.783Z,10.07
2024-01-08T17:21:12.305Z,9.13
2024-01-08T17:23:40.394Z,8.87
2024-01-08T17:26:09.993Z,9.37
2024-01-08T17:28:38.406Z,9.60
2024-01-08T17:31:06.607Z,9.30
2024-01-08T17:33:34.816Z,10.57
2024-01-08T17:36:02.983Z,10.27
2024-01-08T17:38:34.159Z,9.97
2024-01-08T17:41:02.576Z,11.17
2024-01-08T17:43:32.268Z,12.00
2024-01-08T17:46:00.901Z,10.40
2024-01-08T17:48:29.004Z,10.90
2024-01-08T17:50:57.046Z,11.20
2024-01-08T17:53:26.813Z,10.90
2024-01-08T17:55:55.621Z,10.87
2024-01-08T17:58:23.689Z,10.53
2024-01-08T18:00:53.499Z,10.10
2024-01-08T18:03:21.553Z,10.23
2024-01-08T18:05:50.553Z,11.23
2024-01-08T18:08:18.946Z,11.00
2024-01-08T18:10:50.371Z,10.17
2024-01-08T18:13:20.260Z,9.93
2024-01-08T18:15:51.292Z,11.77
2024-01-08T18:18:21.042Z,10.43
2024-01-08T18:20:49.279Z,11.07
2024-01-08T18:23:18.782Z,12.03
2024-01-08T18:25:48.408Z,10.57
2024-01-08T18:28:18.205Z,10.93
2024-01-08T18:30:47.409Z,10.67
2024-01-08T18:33:18.176Z,10.27
2024-01-08T18:35:49.994Z,10.07
2024-01-08T18:38:19.393Z,10.30
2024-01-08T18:40:47.459Z,11.53
2024-01-08T18:43:15.564Z,9.90
2024-01-08T18:45:43.711Z,10.77
2024-01-08T18:48:11.881Z,9.80
2024-01-08T18:50:39.960Z,10.23
2024-01-08T18:53:09.377Z,10.50
2024-01-08T18:55:37.477Z,10.60
2024-01-08T18:58:05.696Z,11.70
2024-01-08T19:00:37.805Z,11.83
2024-01-08T19:03:07.109Z,12.13
2024-01-08T19:05:35.531Z,10.90
2024-01-08T19:08:03.931Z,11.03
2024-01-08T19:10:33.428Z,12.20
2024-01-08T19:13:01.604Z,11.50
2024-01-08T19:15:29.973Z,10.43
2024-01-08T19:17:58.163Z,11.47
2024-01-08T19:20:27.516Z,11.80
2024-01-08T19:22:56.054Z,11.47
2024-01-08T19:25:24.099Z,11.80
2024-01-08T19:27:53.488Z,12.33
2024-01-08T19:30:21.577Z,12.00
2024-01-08T19:32:49.743Z,11.73
2024-01-08T19:35:17.904Z,11.57
2024-01-08T19:37:45.891Z,11.30
2024-01-08T19:40:14.229Z,10.30
2024-01-08T19:42:42.348Z,11.60
2024-01-08T19:45:11.937Z,11.60
2024-01-08T19:47:40.168Z,12.10
2024-01-08T19:50:08.958Z,11.37
2024-01-08T19:52:37.179Z,11.17
2024-01-08T19:55:05.480Z,10.80
2024-01-08T19:57:33.582Z,10.83
2024-01-08T20:00:01.667Z,11.67
2024-01-08T20:02:41.502Z,11.13
2024-01-08T20:05:10.155Z,10.43
2024-01-08T20:07:38.320Z,11.27
2024-01-08T20:10:08.034Z,9.90
2024-01-08T20:12:36.438Z,10.30
2024-01-08T20:15:05.776Z,10.03
2024-01-08T20:17:34.497Z,11.00
2024-01-08T20:20:05.772Z,11.50
2024-01-08T20:22:34.359Z,10.80
2024-01-08T20:25:02.379Z,10.07
2024-01-08T20:27:30.511Z,9.93
2024-01-08T20:29:58.699Z,10.13
2024-01-08T20:32:26.854Z,10.37
2024-01-08T20:34:55.332Z,9.17
2024-01-08T20:37:26.827Z,10.37
2024-01-08T20:39:54.933Z,9.33
2024-01-08T20:42:23.025Z,9.67
2024-01-08T20:44:51.342Z,11.30
2024-01-08T20:47:19.555Z,10.70
2024-01-08T20:49:49.834Z,9.90
2024-01-08T20:52:19.386Z,10.30
2024-01-08T20:54:48.811Z,9.83
2024-01-08T20:57:16.881Z,9.20
2024-01-08T20:59:46.025Z,9.37
2024-01-08T21:02:14.457Z,8.93
2024-01-08T21:04:46.185Z,8.63
2024-01-08T21:07:14.697Z,8.33
2024-01-08T21:09:42.712Z,8.20
2024-01-08T21:12:12.182Z,8.20
2024-01-08T21:14:40.571Z,7.93
2024-01-08T21:17:08.726Z,8.07
2024-01-08T21:19:36.880Z,8.90
2024-01-08T21:22:07.873Z,9.03
2024-01-08T21:24:35.879Z,8.20
2024-01-08T21:27:04.628Z,8.23
2024-01-08T21:29:35.664Z,8.20
2024-01-08T21:32:13.613Z,8.53
2024-01-08T21:34:53.452Z,8.10
2024-01-08T21:37:27.032Z,8.23
2024-01-08T21:40:01.286Z,7.43
2024-01-08T21:42:31.179Z,7.77
2024-01-08T21:45:52.862Z,7.27
2024-01-08T21:48:57.739Z,8.10
2024-01-08T21:52:00.706Z,7.77
2024-01-08T21:55:33.520Z,7.60
2024-01-08T22:01:58.142Z,7.93
2024-01-08T22:08:59.305Z,8.17
2024-01-08T22:11:55.870Z,8.53
2024-01-08T22:15:13.330Z,7.53
2024-01-08T22:24:52.751Z,8.00
2024-01-08T22:28:16.024Z,8.77
2024-01-08T22:31:13.014Z,8.10
2024-01-08T22:33:44.988Z,9.00
2024-01-08T22:43:46.378Z,9.03
2024-01-08T22:46:53.089Z,9.60
2024-01-08T22:53:21.460Z,7.97
2024-01-08T22:56:27.430Z,9.90
2024-01-08T23:02:38.403Z,9.93
2024-01-08T23:05:56.687Z,9.47
2024-01-08T23:09:01.668Z,9.20
2024-01-08T23:18:38.609Z,9.80
2024-01-08T23:28:45.587Z,9.50
2024-01-08T23:35:18.756Z,9.47
2024-01-08T23:42:06.209Z,9.00
2024-01-08T23:44:59.948Z,10.03
2024-01-08T23:55:02.423Z,9.13
2024-01-08T23:58:10.790Z,9.83
